sensor_id;sensor_type;location;lat;lon;timestamp;temperature;humidity
23579;DHT22;11967;50.852;4.400;2022-07-30T00:01:29;25.00;99.90
23579;DHT22;11967;50.852;4.400;2022-07-30T00:03:55;24.90;99.90
23579;DHT22;11967;50.852;4.400;2022-07-30T00:06:21;24.90;99.90
23579;DHT22;11967;50.852;4.400;2022-07-30T00:08:46;24.80;99.90
23579;DHT22;11967;50.852;4.400;2022-07-30T00:11:12;24.80;99.90
23579;DHT22;11967;50.852;4.400;2022-07-30T00:13:37;24.90;99.90
23579;DHT22;11967;50.852;4.400;2022-07-30T00:16:03;24.80;99.90
23579;DHT22;11967;50.852;4.400;2022-07-30T00:18:29;24.80;99.90
23579;DHT22;11967;50.852;4.400;2022-07-30T00:20:55;24.80;99.90
23579;DHT22;11967;50.852;4.400;2022-07-30T00:23:21;24.80;99.90
23579;DHT22;11967;50.852;4.400;2022-07-30T00:25:47;24.70;99.90
23579;DHT22;11967;50.852;4.400;2022-07-30T00:28:12;24.60;99.90
23579;DHT22;11967;50.852;4.400;2022-07-30T00:30:38;24.60;99.90
23579;DHT22;11967;50.852;4.400;2022-07-30T00:33:05;24.70;99.90
23579;DHT22;11967;50.852;4.400;2022-07-30T00:35:31;24.80;99.90
23579;DHT22;11967;50.852;4.400;2022-07-30T00:37:57;24.70;99.90
23579;DHT22;11967;50.852;4.400;2022-07-30T00:40:23;24.80;99.90
23579;DHT22;11967;50.852;4.400;2022-07-30T00:42:49;24.80;99.90
23579;DHT22;11967;50.852;4.400;2022-07-30T00:45:15;24.80;99.90
23579;DHT22;11967;50.852;4.400;2022-07-30T00:47:41;24.80;99.90
23579;DHT22;11967;50.852;4.400;2022-07-30T00:50:11;24.90;99.90
23579;DHT22;11967;50.852;4.400;2022-07-30T00:52:38;24.80;99.90
23579;DHT22;11967;50.852;4.400;2022-07-30T00:55:05;24.80;99.90
23579;DHT22;11967;50.852;4.400;2022-07-30T00:57:31;24.80;99.90
23579;DHT22;11967;50.852;4.400;2022-07-30T00:59:57;24.80;99.90
23579;DHT22;11967;50.852;4.400;2022-07-30T01:02:23;24.70;99.90
23579;DHT22;11967;50.852;4.400;2022-07-30T01:04:48;24.80;99.90
23579;DHT22;11967;50.852;4.400;2022-07-30T01:07:14;24.80;99.90
23579;DHT22;11967;50.852;4.400;2022-07-30T01:09:40;24.80;99.90
23579;DHT22;11967;50.852;4.400;2022-07-30T01:12:07;24.80;99.90
23579;DHT22;11967;50.852;4.400;2022-07-30T01:14:34;24.70;99.90
23579;DHT22;11967;50.852;4.400;2022-07-30T01:17:01;24.70;99.90
23579;DHT22;11967;50.852;4.400;2022-07-30T01:19:30;24.60;99.90
23579;DHT22;11967;50.852;4.400;2022-07-30T01:27:39;24.70;99.90
23579;DHT22;11967;50.852;4.400;2022-07-30T01:30:06;24.80;99.90
23579;DHT22;11967;50.852;4.400;2022-07-30T01:32:34;24.60;99.90
23579;DHT22;11967;50.852;4.400;2022-07-30T01:35:02;24.80;99.90
23579;DHT22;11967;50.852;4.400;2022-07-30T01:37:29;24.80;99.90
23579;DHT22;11967;50.852;4.400;2022-07-30T01:39:57;24.80;99.90
23579;DHT22;11967;50.852;4.400;2022-07-30T01:42:23;24.70;99.90
23579;DHT22;11967;50.852;4.400;2022-07-30T01:44:51;24.70;99.90
23579;DHT22;11967;50.852;4.400;2022-07-30T01:47:18;24.60;99.90
23579;DHT22;11967;50.852;4.400;2022-07-30T01:49:48;24.70;99.90
23579;DHT22;11967;50.852;4.400;2022-07-30T01:52:16;24.80;99.90
23579;DHT22;11967;50.852;4.400;2022-07-30T01:54:44;24.70;99.90
23579;DHT22;11967;50.852;4.400;2022-07-30T01:57:13;24.70;99.90
23579;DHT22;11967;50.852;4.400;2022-07-30T01:59:41;24.70;99.90
23579;DHT22;11967;50.852;4.400;2022-07-30T02:02:08;24.70;99.90
23579;DHT22;11967;50.852;4.400;2022-07-30T02:04:34;24.70;99.90
23579;DHT22;11967;50.852;4.400;2022-07-30T02:07:13;24.60;99.90
23579;DHT22;11967;50.852;4.400;2022-07-30T02:10:26;24.60;99.90
23579;DHT22;11967;50.852;4.400;2022-07-30T02:12:33;24.70;99.90
23579;DHT22;11967;50.852;4.400;2022-07-30T02:15:25;24.70;99.90
23579;DHT22;11967;50.852;4.400;2022-07-30T02:18:14;24.80;99.90
23579;DHT22;11967;50.852;4.400;2022-07-30T02:20:46;24.80;99.90
23579;DHT22;11967;50.852;4.400;2022-07-30T02:23:15;24.60;99.90
23579;DHT22;11967;50.852;4.400;2022-07-30T02:25:46;24.60;99.90
23579;DHT22;11967;50.852;4.400;2022-07-30T02:28:14;24.50;99.90
23579;DHT22;11967;50.852;4.400;2022-07-30T02:30:53;24.30;99.90
23579;DHT22;11967;50.852;4.400;2022-07-30T02:33:26;24.40;99.90
23579;DHT22;11967;50.852;4.400;2022-07-30T02:35:53;24.10;99.90
23579;DHT22;11967;50.852;4.400;2022-07-30T02:38:20;24.10;99.90
23579;DHT22;11967;50.852;4.400;2022-07-30T02:40:47;24.10;99.90
23579;DHT22;11967;50.852;4.400;2022-07-30T02:43:15;24.10;99.90
23579;DHT22;11967;50.852;4.400;2022-07-30T02:45:42;24.00;99.90
23579;DHT22;11967;50.852;4.400;2022-07-30T02:48:11;23.80;99.90
23579;DHT22;11967;50.852;4.400;2022-07-30T02:50:38;23.90;99.90
23579;DHT22;11967;50.852;4.400;2022-07-30T02:53:08;23.90;99.90
23579;DHT22;11967;50.852;4.400;2022-07-30T02:55:34;23.80;99.90
23579;DHT22;11967;50.852;4.400;2022-07-30T02:58:02;23.80;99.90
23579;DHT22;11967;50.852;4.400;2022-07-30T03:00:29;23.70;99.90
23579;DHT22;11967;50.852;4.400;2022-07-30T03:02:57;23.60;99.90
23579;DHT22;11967;50.852;4.400;2022-07-30T03:05:25;23.70;99.90
23579;DHT22;11967;50.852;4.400;2022-07-30T03:07:54;23.60;99.90
23579;DHT22;11967;50.852;4.400;2022-07-30T03:10:21;23.60;99.90
23579;DHT22;11967;50.852;4.400;2022-07-30T03:12:49;23.70;99.90
23579;DHT22;11967;50.852;4.400;2022-07-30T03:15:15;23.60;99.90
23579;DHT22;11967;50.852;4.400;2022-07-30T03:17:44;23.70;99.90
23579;DHT22;11967;50.852;4.400;2022-07-30T03:20:12;23.80;99.90
23579;DHT22;11967;50.852;4.400;2022-07-30T03:22:42;23.80;99.90
23579;DHT22;11967;50.852;4.400;2022-07-30T03:25:11;23.90;99.90
23579;DHT22;11967;50.852;4.400;2022-07-30T03:27:38;23.80;99.90
23579;DHT22;11967;50.852;4.400;2022-07-30T03:30:05;23.80;99.90
23579;DHT22;11967;50.852;4.400;2022-07-30T03:32:34;24.00;99.90
23579;DHT22;11967;50.852;4.400;2022-07-30T03:35:00;23.90;99.90
23579;DHT22;11967;50.852;4.400;2022-07-30T03:37:26;24.00;99.90
23579;DHT22;11967;50.852;4.400;2022-07-30T03:39:53;24.00;99.90
23579;DHT22;11967;50.852;4.400;2022-07-30T03:42:20;24.00;99.90
23579;DHT22;11967;50.852;4.400;2022-07-30T03:44:47;24.00;99.90
23579;DHT22;11967;50.852;4.400;2022-07-30T03:47:13;24.10;99.90
23579;DHT22;11967;50.852;4.400;2022-07-30T03:49:40;24.10;99.90
23579;DHT22;11967;50.852;4.400;2022-07-30T03:52:06;24.10;99.90
23579;DHT22;11967;50.852;4.400;2022-07-30T03:54:32;24.20;99.90
23579;DHT22;11967;50.852;4.400;2022-07-30T03:57:00;24.30;99.90
23579;DHT22;11967;50.852;4.400;2022-07-30T03:59:27;24.30;99.90
23579;DHT22;11967;50.852;4.400;2022-07-30T04:01:53;24.10;99.90
23579;DHT22;11967;50.852;4.400;2022-07-30T04:04:18;24.30;99.90
23579;DHT22;11967;50.852;4.400;2022-07-30T04:06:44;24.40;99.90
23579;DHT22;11967;50.852;4.400;2022-07-30T04:09:11;24.40;99.90
23579;DHT22;11967;50.852;4.400;2022-07-30T04:11:38;24.50;99.90
23579;DHT22;11967;50.852;4.400;2022-07-30T04:14:04;24.60;99.90
23579;DHT22;11967;50.852;4.400;2022-07-30T04:16:46;24.60;99.90
23579;DHT22;11967;50.852;4.400;2022-07-30T04:19:38;24.40;99.90
23579;DHT22;11967;50.852;4.400;2022-07-30T04:22:04;24.50;99.90
23579;DHT22;11967;50.852;4.400;2022-07-30T04:24:30;24.60;99.90
23579;DHT22;11967;50.852;4.400;2022-07-30T04:26:58;24.50;99.90
23579;DHT22;11967;50.852;4.400;2022-07-30T04:29:25;24.40;99.90
23579;DHT22;11967;50.852;4.400;2022-07-30T04:31:52;24.50;99.90
23579;DHT22;11967;50.852;4.400;2022-07-30T04:34:21;24.40;99.90
23579;DHT22;11967;50.852;4.400;2022-07-30T04:36:47;24.50;99.90
23579;DHT22;11967;50.852;4.400;2022-07-30T04:39:13;24.50;99.90
23579;DHT22;11967;50.852;4.400;2022-07-30T04:41:39;24.40;99.90
23579;DHT22;11967;50.852;4.400;2022-07-30T04:44:04;24.40;99.90
23579;DHT22;11967;50.852;4.400;2022-07-30T04:46:30;24.40;99.90
23579;DHT22;11967;50.852;4.400;2022-07-30T04:48:56;24.40;99.90
23579;DHT22;11967;50.852;4.400;2022-07-30T04:51:25;24.50;99.90
23579;DHT22;11967;50.852;4.400;2022-07-30T04:53:53;24.30;99.90
23579;DHT22;11967;50.852;4.400;2022-07-30T04:56:20;24.40;99.90
23579;DHT22;11967;50.852;4.400;2022-07-30T04:58:47;24.40;99.90
23579;DHT22;11967;50.852;4.400;2022-07-30T05:01:24;24.40;99.90
23579;DHT22;11967;50.852;4.400;2022-07-30T05:03:52;24.40;99.90
23579;DHT22;11967;50.852;4.400;2022-07-30T05:06:19;24.40;99.90
23579;DHT22;11967;50.852;4.400;2022-07-30T05:08:45;24.40;99.90
23579;DHT22;11967;50.852;4.400;2022-07-30T05:11:12;24.30;99.90
23579;DHT22;11967;50.852;4.400;2022-07-30T05:13:42;24.60;99.90
23579;DHT22;11967;50.852;4.400;2022-07-30T05:16:09;24.60;99.90
23579;DHT22;11967;50.852;4.400;2022-07-30T05:18:36;24.50;99.90
23579;DHT22;11967;50.852;4.400;2022-07-30T05:21:03;24.50;99.90
23579;DHT22;11967;50.852;4.400;2022-07-30T05:23:29;24.50;99.90
23579;DHT22;11967;50.852;4.400;2022-07-30T05:25:55;24.60;99.90
23579;DHT22;11967;50.852;4.400;2022-07-30T05:28:21;24.50;99.90
23579;DHT22;11967;50.852;4.400;2022-07-30T05:30:47;24.50;99.90
23579;DHT22;11967;50.852;4.400;2022-07-30T05:33:13;24.60;99.90
23579;DHT22;11967;50.852;4.400;2022-07-30T05:35:39;24.60;99.90
23579;DHT22;11967;50.852;4.400;2022-07-30T05:38:05;24.50;99.90
23579;DHT22;11967;50.852;4.400;2022-07-30T05:40:30;24.60;99.90
23579;DHT22;11967;50.852;4.400;2022-07-30T05:42:56;24.50;99.90
23579;DHT22;11967;50.852;4.400;2022-07-30T05:45:22;24.60;99.90
23579;DHT22;11967;50.852;4.400;2022-07-30T05:47:47;24.60;99.90
23579;DHT22;11967;50.852;4.400;2022-07-30T05:50:13;24.60;99.90
23579;DHT22;11967;50.852;4.400;2022-07-30T05:52:39;24.60;99.90
23579;DHT22;11967;50.852;4.400;2022-07-30T05:55:06;24.60;99.90
23579;DHT22;11967;50.852;4.400;2022-07-30T05:57:36;24.60;99.90
23579;DHT22;11967;50.852;4.400;2022-07-30T06:00:05;24.60;99.90
23579;DHT22;11967;50.852;4.400;2022-07-30T06:02:32;24.70;99.90
23579;DHT22;11967;50.852;4.400;2022-07-30T06:04:57;24.80;99.90
23579;DHT22;11967;50.852;4.400;2022-07-30T06:07:23;24.80;99.90
23579;DHT22;11967;50.852;4.400;2022-07-30T06:09:49;24.80;99.90
23579;DHT22;11967;50.852;4.400;2022-07-30T06:12:15;24.70;99.90
23579;DHT22;11967;50.852;4.400;2022-07-30T06:14:40;24.80;99.90
23579;DHT22;11967;50.852;4.400;2022-07-30T06:17:06;24.80;99.90
23579;DHT22;11967;50.852;4.400;2022-07-30T06:19:31;24.70;99.90
23579;DHT22;11967;50.852;4.400;2022-07-30T06:21:57;24.60;99.90
23579;DHT22;11967;50.852;4.400;2022-07-30T06:24:24;24.70;99.90
23579;DHT22;11967;50.852;4.400;2022-07-30T06:26:49;24.40;99.90
23579;DHT22;11967;50.852;4.400;2022-07-30T06:29:15;24.40;99.90
23579;DHT22;11967;50.852;4.400;2022-07-30T06:31:40;24.30;99.90
23579;DHT22;11967;50.852;4.400;2022-07-30T06:34:06;24.40;99.90
23579;DHT22;11967;50.852;4.400;2022-07-30T06:36:32;24.40;99.90
23579;DHT22;11967;50.852;4.400;2022-07-30T06:38:57;24.60;99.90
23579;DHT22;11967;50.852;4.400;2022-07-30T06:41:23;24.70;99.90
23579;DHT22;11967;50.852;4.400;2022-07-30T06:43:49;24.70;99.90
23579;DHT22;11967;50.852;4.400;2022-07-30T06:46:16;24.70;99.90
23579;DHT22;11967;50.852;4.400;2022-07-30T06:48:42;24.30;99.90
23579;DHT22;11967;50.852;4.400;2022-07-30T06:51:08;24.00;99.90
23579;DHT22;11967;50.852;4.400;2022-07-30T06:53:39;23.70;99.90
23579;DHT22;11967;50.852;4.400;2022-07-30T06:56:27;23.50;99.90
23579;DHT22;11967;50.852;4.400;2022-07-30T06:58:57;23.40;99.90
23579;DHT22;11967;50.852;4.400;2022-07-30T07:01:28;23.30;99.90
23579;DHT22;11967;50.852;4.400;2022-07-30T07:04:03;23.30;99.90
23579;DHT22;11967;50.852;4.400;2022-07-30T07:06:29;23.30;99.90
23579;DHT22;11967;50.852;4.400;2022-07-30T07:08:55;23.20;99.90
23579;DHT22;11967;50.852;4.400;2022-07-30T07:11:21;23.10;99.90
23579;DHT22;11967;50.852;4.400;2022-07-30T07:13:46;23.00;99.90
23579;DHT22;11967;50.852;4.400;2022-07-30T07:16:12;23.10;99.90
23579;DHT22;11967;50.852;4.400;2022-07-30T07:18:38;23.20;99.90
23579;DHT22;11967;50.852;4.400;2022-07-30T07:21:06;23.10;99.90
23579;DHT22;11967;50.852;4.400;2022-07-30T07:23:34;23.20;99.90
23579;DHT22;11967;50.852;4.400;2022-07-30T07:26:00;23.20;99.90
23579;DHT22;11967;50.852;4.400;2022-07-30T07:28:26;23.50;99.90
23579;DHT22;11967;50.852;4.400;2022-07-30T07:30:51;23.80;99.90
23579;DHT22;11967;50.852;4.400;2022-07-30T07:33:17;24.10;99.90
23579;DHT22;11967;50.852;4.400;2022-07-30T07:35:43;24.30;99.90
23579;DHT22;11967;50.852;4.400;2022-07-30T07:38:09;24.40;99.90
23579;DHT22;11967;50.852;4.400;2022-07-30T07:40:34;24.50;99.90
23579;DHT22;11967;50.852;4.400;2022-07-30T07:43:00;24.50;99.90
23579;DHT22;11967;50.852;4.400;2022-07-30T07:45:28;24.60;99.90
23579;DHT22;11967;50.852;4.400;2022-07-30T07:47:54;24.60;99.90
23579;DHT22;11967;50.852;4.400;2022-07-30T07:50:19;24.80;99.90
23579;DHT22;11967;50.852;4.400;2022-07-30T07:52:45;24.70;99.90
23579;DHT22;11967;50.852;4.400;2022-07-30T07:55:11;24.70;99.90
23579;DHT22;11967;50.852;4.400;2022-07-30T07:57:38;24.80;99.90
23579;DHT22;11967;50.852;4.400;2022-07-30T08:00:04;24.80;99.90
23579;DHT22;11967;50.852;4.400;2022-07-30T08:02:30;24.90;99.90
23579;DHT22;11967;50.852;4.400;2022-07-30T08:04:58;24.90;99.90
23579;DHT22;11967;50.852;4.400;2022-07-30T08:07:24;24.80;99.90
23579;DHT22;11967;50.852;4.400;2022-07-30T08:09:49;25.00;99.90
23579;DHT22;11967;50.852;4.400;2022-07-30T08:12:16;24.70;99.90
23579;DHT22;11967;50.852;4.400;2022-07-30T08:14:42;24.70;99.90
23579;DHT22;11967;50.852;4.400;2022-07-30T08:17:08;24.90;99.90
23579;DHT22;11967;50.852;4.400;2022-07-30T08:19:33;25.00;99.90
23579;DHT22;11967;50.852;4.400;2022-07-30T08:22:00;25.00;99.90
23579;DHT22;11967;50.852;4.400;2022-07-30T08:24:27;25.00;99.90
23579;DHT22;11967;50.852;4.400;2022-07-30T08:26:52;25.00;99.90
23579;DHT22;11967;50.852;4.400;2022-07-30T08:29:18;25.10;99.90
23579;DHT22;11967;50.852;4.400;2022-07-30T08:31:45;25.10;99.90
23579;DHT22;11967;50.852;4.400;2022-07-30T08:34:10;25.10;99.90
23579;DHT22;11967;50.852;4.400;2022-07-30T08:36:37;25.00;99.90
23579;DHT22;11967;50.852;4.400;2022-07-30T08:39:03;25.00;99.90
23579;DHT22;11967;50.852;4.400;2022-07-30T08:41:45;25.00;99.80
23579;DHT22;11967;50.852;4.400;2022-07-30T08:44:16;25.00;98.90
23579;DHT22;11967;50.852;4.400;2022-07-30T08:46:46;24.90;98.70
23579;DHT22;11967;50.852;4.400;2022-07-30T08:49:17;25.00;99.60
23579;DHT22;11967;50.852;4.400;2022-07-30T08:51:43;25.00;99.00
23579;DHT22;11967;50.852;4.400;2022-07-30T08:54:11;25.10;98.30
23579;DHT22;11967;50.852;4.400;2022-07-30T08:56:37;25.10;99.00
23579;DHT22;11967;50.852;4.400;2022-07-30T08:59:03;25.00;98.80
23579;DHT22;11967;50.852;4.400;2022-07-30T09:01:29;25.00;98.20
23579;DHT22;11967;50.852;4.400;2022-07-30T09:03:55;24.90;98.20
23579;DHT22;11967;50.852;4.400;2022-07-30T09:06:20;25.10;99.20
23579;DHT22;11967;50.852;4.400;2022-07-30T09:08:53;25.20;98.50
23579;DHT22;11967;50.852;4.400;2022-07-30T09:11:21;25.20;98.50
23579;DHT22;11967;50.852;4.400;2022-07-30T09:13:48;25.20;99.30
23579;DHT22;11967;50.852;4.400;2022-07-30T09:16:23;25.30;98.70
23579;DHT22;11967;50.852;4.400;2022-07-30T09:18:50;25.30;98.90
23579;DHT22;11967;50.852;4.400;2022-07-30T09:21:22;25.40;99.10
23579;DHT22;11967;50.852;4.400;2022-07-30T09:26:32;25.50;98.30
23579;DHT22;11967;50.852;4.400;2022-07-30T09:29:23;25.50;98.10
23579;DHT22;11967;50.852;4.400;2022-07-30T09:31:53;25.60;97.50
23579;DHT22;11967;50.852;4.400;2022-07-30T09:34:35;25.60;97.90
23579;DHT22;11967;50.852;4.400;2022-07-30T09:37:04;25.70;97.50
23579;DHT22;11967;50.852;4.400;2022-07-30T09:39:46;25.70;97.70
23579;DHT22;11967;50.852;4.400;2022-07-30T09:42:22;25.80;97.30
23579;DHT22;11967;50.852;4.400;2022-07-30T09:44:49;25.90;97.40
23579;DHT22;11967;50.852;4.400;2022-07-30T09:47:40;25.90;97.00
23579;DHT22;11967;50.852;4.400;2022-07-30T09:50:08;25.90;97.50
23579;DHT22;11967;50.852;4.400;2022-07-30T09:52:36;26.00;97.50
23579;DHT22;11967;50.852;4.400;2022-07-30T09:55:04;26.00;96.30
23579;DHT22;11967;50.852;4.400;2022-07-30T09:57:30;25.90;95.30
23579;DHT22;11967;50.852;4.400;2022-07-30T09:59:57;25.90;95.50
23579;DHT22;11967;50.852;4.400;2022-07-30T10:02:31;26.00;95.80
23579;DHT22;11967;50.852;4.400;2022-07-30T10:05:13;26.00;95.70
23579;DHT22;11967;50.852;4.400;2022-07-30T10:07:46;25.70;95.80
23579;DHT22;11967;50.852;4.400;2022-07-30T10:10:14;25.60;95.50
23579;DHT22;11967;50.852;4.400;2022-07-30T10:12:40;25.60;95.70
23579;DHT22;11967;50.852;4.400;2022-07-30T10:15:07;25.70;95.40
23579;DHT22;11967;50.852;4.400;2022-07-30T10:17:34;25.80;95.40
23579;DHT22;11967;50.852;4.400;2022-07-30T10:20:04;25.80;95.00
23579;DHT22;11967;50.852;4.400;2022-07-30T10:22:33;25.90;95.20
23579;DHT22;11967;50.852;4.400;2022-07-30T10:25:01;26.00;95.00
23579;DHT22;11967;50.852;4.400;2022-07-30T10:27:30;26.10;94.10
23579;DHT22;11967;50.852;4.400;2022-07-30T10:29:57;26.10;94.00
23579;DHT22;11967;50.852;4.400;2022-07-30T10:32:28;26.20;93.60
23579;DHT22;11967;50.852;4.400;2022-07-30T10:34:54;26.20;93.60
23579;DHT22;11967;50.852;4.400;2022-07-30T10:37:21;26.20;93.50
23579;DHT22;11967;50.852;4.400;2022-07-30T10:39:56;26.20;93.20
23579;DHT22;11967;50.852;4.400;2022-07-30T10:47:49;26.20;93.30
23579;DHT22;11967;50.852;4.400;2022-07-30T10:50:18;26.20;93.10
23579;DHT22;11967;50.852;4.400;2022-07-30T10:52:55;26.30;93.30
23579;DHT22;11967;50.852;4.400;2022-07-30T10:55:32;26.40;93.40
23579;DHT22;11967;50.852;4.400;2022-07-30T10:58:09;26.50;92.80
23579;DHT22;11967;50.852;4.400;2022-07-30T11:00:58;26.50;92.90
23579;DHT22;11967;50.852;4.400;2022-07-30T11:03:25;26.50;92.20
23579;DHT22;11967;50.852;4.400;2022-07-30T11:08:43;26.50;92.70
23579;DHT22;11967;50.852;4.400;2022-07-30T11:14:01;26.50;92.60
23579;DHT22;11967;50.852;4.400;2022-07-30T11:19:13;26.50;93.40
23579;DHT22;11967;50.852;4.400;2022-07-30T11:21:44;26.50;92.60
23579;DHT22;11967;50.852;4.400;2022-07-30T11:24:41;26.40;92.70
23579;DHT22;11967;50.852;4.400;2022-07-30T11:27:08;26.30;91.70
23579;DHT22;11967;50.852;4.400;2022-07-30T11:29:37;26.20;92.50
23579;DHT22;11967;50.852;4.400;2022-07-30T11:32:23;26.30;92.60
23579;DHT22;11967;50.852;4.400;2022-07-30T11:34:51;26.40;92.50
23579;DHT22;11967;50.852;4.400;2022-07-30T11:37:18;26.40;92.40
23579;DHT22;11967;50.852;4.400;2022-07-30T11:42:31;26.60;92.20
23579;DHT22;11967;50.852;4.400;2022-07-30T11:47:43;26.70;92.40
23579;DHT22;11967;50.852;4.400;2022-07-30T11:50:25;26.80;91.50
23579;DHT22;11967;50.852;4.400;2022-07-30T11:52:53;26.70;91.30
23579;DHT22;11967;50.852;4.400;2022-07-30T11:58:01;26.80;91.10
23579;DHT22;11967;50.852;4.400;2022-07-30T12:00:39;26.90;91.30
23579;DHT22;11967;50.852;4.400;2022-07-30T12:03:11;26.90;90.40
23579;DHT22;11967;50.852;4.400;2022-07-30T12:05:38;26.80;90.00
23579;DHT22;11967;50.852;4.400;2022-07-30T12:08:04;26.80;90.10
23579;DHT22;11967;50.852;4.400;2022-07-30T12:10:31;26.80;89.70
23579;DHT22;11967;50.852;4.400;2022-07-30T12:13:11;26.80;88.80
23579;DHT22;11967;50.852;4.400;2022-07-30T12:15:39;26.80;89.60
23579;DHT22;11967;50.852;4.400;2022-07-30T12:21:18;27.00;89.90
23579;DHT22;11967;50.852;4.400;2022-07-30T12:24:04;26.80;89.80
23579;DHT22;11967;50.852;4.400;2022-07-30T12:26:34;26.80;90.20
23579;DHT22;11967;50.852;4.400;2022-07-30T12:29:03;26.90;90.40
23579;DHT22;11967;50.852;4.400;2022-07-30T12:31:29;27.00;89.20
23579;DHT22;11967;50.852;4.400;2022-07-30T12:33:55;27.10;89.10
23579;DHT22;11967;50.852;4.400;2022-07-30T12:39:45;27.10;86.10
23579;DHT22;11967;50.852;4.400;2022-07-30T12:48:09;27.20;86.30
23579;DHT22;11967;50.852;4.400;2022-07-30T12:50:37;27.20;85.40
23579;DHT22;11967;50.852;4.400;2022-07-30T12:53:03;27.00;84.60
23579;DHT22;11967;50.852;4.400;2022-07-30T12:55:38;27.00;86.70
23579;DHT22;11967;50.852;4.400;2022-07-30T12:58:06;27.10;86.90
23579;DHT22;11967;50.852;4.400;2022-07-30T13:00:46;27.10;84.50
23579;DHT22;11967;50.852;4.400;2022-07-30T13:03:24;27.20;85.20
23579;DHT22;11967;50.852;4.400;2022-07-30T13:05:52;27.30;85.20
23579;DHT22;11967;50.852;4.400;2022-07-30T13:08:18;27.30;84.80
23579;DHT22;11967;50.852;4.400;2022-07-30T13:10:57;27.30;83.50
23579;DHT22;11967;50.852;4.400;2022-07-30T13:13:27;27.30;84.00
23579;DHT22;11967;50.852;4.400;2022-07-30T13:16:01;27.30;84.40
23579;DHT22;11967;50.852;4.400;2022-07-30T13:18:29;27.30;84.00
23579;DHT22;11967;50.852;4.400;2022-07-30T13:20:59;27.30;84.60
23579;DHT22;11967;50.852;4.400;2022-07-30T13:23:27;27.20;85.60
23579;DHT22;11967;50.852;4.400;2022-07-30T13:25:54;27.20;86.10
23579;DHT22;11967;50.852;4.400;2022-07-30T13:28:21;27.20;85.60
23579;DHT22;11967;50.852;4.400;2022-07-30T13:30:48;27.20;83.40
23579;DHT22;11967;50.852;4.400;2022-07-30T13:33:14;27.10;83.40
23579;DHT22;11967;50.852;4.400;2022-07-30T13:35:40;27.00;83.80
23579;DHT22;11967;50.852;4.400;2022-07-30T13:38:05;26.90;83.20
23579;DHT22;11967;50.852;4.400;2022-07-30T13:40:33;27.00;82.50
23579;DHT22;11967;50.852;4.400;2022-07-30T13:42:59;27.00;82.30
23579;DHT22;11967;50.852;4.400;2022-07-30T13:45:26;26.80;81.40
23579;DHT22;11967;50.852;4.400;2022-07-30T13:47:51;26.70;82.10
23579;DHT22;11967;50.852;4.400;2022-07-30T13:50:17;26.70;82.30
23579;DHT22;11967;50.852;4.400;2022-07-30T13:52:43;26.70;83.30
23579;DHT22;11967;50.852;4.400;2022-07-30T13:55:09;26.70;83.80
23579;DHT22;11967;50.852;4.400;2022-07-30T13:57:35;26.80;83.90
23579;DHT22;11967;50.852;4.400;2022-07-30T14:00:00;26.90;83.80
23579;DHT22;11967;50.852;4.400;2022-07-30T14:02:26;27.00;83.80
23579;DHT22;11967;50.852;4.400;2022-07-30T14:04:52;27.10;83.40
23579;DHT22;11967;50.852;4.400;2022-07-30T14:07:18;27.10;83.70
23579;DHT22;11967;50.852;4.400;2022-07-30T14:09:45;27.20;83.90
23579;DHT22;11967;50.852;4.400;2022-07-30T14:12:11;27.20;83.90
23579;DHT22;11967;50.852;4.400;2022-07-30T14:14:36;27.20;84.40
23579;DHT22;11967;50.852;4.400;2022-07-30T14:17:02;27.30;83.90
23579;DHT22;11967;50.852;4.400;2022-07-30T14:19:28;27.30;83.60
23579;DHT22;11967;50.852;4.400;2022-07-30T14:21:54;27.40;83.60
23579;DHT22;11967;50.852;4.400;2022-07-30T14:24:21;27.40;83.10
23579;DHT22;11967;50.852;4.400;2022-07-30T14:26:47;27.50;82.40
23579;DHT22;11967;50.852;4.400;2022-07-30T14:29:15;27.50;81.60
23579;DHT22;11967;50.852;4.400;2022-07-30T14:31:41;27.50;81.30
23579;DHT22;11967;50.852;4.400;2022-07-30T14:34:07;27.40;82.50
23579;DHT22;11967;50.852;4.400;2022-07-30T14:36:33;27.20;81.80
23579;DHT22;11967;50.852;4.400;2022-07-30T14:38:59;27.30;82.00
23579;DHT22;11967;50.852;4.400;2022-07-30T14:41:28;27.40;82.40
23579;DHT22;11967;50.852;4.400;2022-07-30T14:43:54;27.40;82.50
23579;DHT22;11967;50.852;4.400;2022-07-30T14:46:19;27.40;78.50
23579;DHT22;11967;50.852;4.400;2022-07-30T14:48:45;27.20;78.60
23579;DHT22;11967;50.852;4.400;2022-07-30T14:51:11;27.20;78.70
23579;DHT22;11967;50.852;4.400;2022-07-30T14:53:36;27.10;78.10
23579;DHT22;11967;50.852;4.400;2022-07-30T14:56:02;26.90;78.30
23579;DHT22;11967;50.852;4.400;2022-07-30T14:58:28;26.80;79.10
23579;DHT22;11967;50.852;4.400;2022-07-30T15:00:54;26.80;79.50
23579;DHT22;11967;50.852;4.400;2022-07-30T15:03:20;26.90;79.70
23579;DHT22;11967;50.852;4.400;2022-07-30T15:05:46;26.90;79.70
23579;DHT22;11967;50.852;4.400;2022-07-30T15:08:11;26.90;80.80
23579;DHT22;11967;50.852;4.400;2022-07-30T15:10:38;26.90;80.90
23579;DHT22;11967;50.852;4.400;2022-07-30T15:13:04;26.80;82.10
23579;DHT22;11967;50.852;4.400;2022-07-30T15:15:29;26.70;81.90
23579;DHT22;11967;50.852;4.400;2022-07-30T15:17:56;26.70;81.80
23579;DHT22;11967;50.852;4.400;2022-07-30T15:20:22;26.60;81.90
23579;DHT22;11967;50.852;4.400;2022-07-30T15:22:48;26.60;81.90
23579;DHT22;11967;50.852;4.400;2022-07-30T15:25:14;26.60;82.30
23579;DHT22;11967;50.852;4.400;2022-07-30T15:27:40;26.60;82.40
23579;DHT22;11967;50.852;4.400;2022-07-30T15:30:07;26.70;82.60
23579;DHT22;11967;50.852;4.400;2022-07-30T15:32:32;26.50;82.50
23579;DHT22;11967;50.852;4.400;2022-07-30T15:34:58;26.50;82.40
23579;DHT22;11967;50.852;4.400;2022-07-30T15:37:25;26.60;82.60
23579;DHT22;11967;50.852;4.400;2022-07-30T15:39:50;26.70;82.90
23579;DHT22;11967;50.852;4.400;2022-07-30T15:42:16;26.70;82.30
23579;DHT22;11967;50.852;4.400;2022-07-30T15:44:42;26.70;82.10
23579;DHT22;11967;50.852;4.400;2022-07-30T15:47:07;26.60;82.40
23579;DHT22;11967;50.852;4.400;2022-07-30T15:49:33;26.60;82.40
23579;DHT22;11967;50.852;4.400;2022-07-30T15:52:01;26.50;82.50
23579;DHT22;11967;50.852;4.400;2022-07-30T15:54:27;26.60;82.20
23579;DHT22;11967;50.852;4.400;2022-07-30T15:56:53;26.60;82.20
23579;DHT22;11967;50.852;4.400;2022-07-30T15:59:20;26.70;82.10
23579;DHT22;11967;50.852;4.400;2022-07-30T16:01:46;26.80;82.20
23579;DHT22;11967;50.852;4.400;2022-07-30T16:04:12;26.80;81.90
23579;DHT22;11967;50.852;4.400;2022-07-30T16:06:39;26.70;81.70
23579;DHT22;11967;50.852;4.400;2022-07-30T16:09:06;26.60;82.20
23579;DHT22;11967;50.852;4.400;2022-07-30T16:11:32;26.70;81.70
23579;DHT22;11967;50.852;4.400;2022-07-30T16:13:58;26.70;81.50
23579;DHT22;11967;50.852;4.400;2022-07-30T16:16:23;26.60;81.90
23579;DHT22;11967;50.852;4.400;2022-07-30T16:18:49;26.60;81.90